Time;durP1;ratioP1;P1;durP2;ratioP2;P2;SDS_P1;SDS_P2;PMS_P1;PMS_P2;Temp;Humidity;BMP_temperature;BMP_pressure;BME280_temperature;BME280_humidity;BME280_pressure;Samples;Min_cycle;Max_cycle;Signal;HPM_P1;HPM_P2
2022/05/14 00:01:06;;;;;;;41.33;7.55;;;;;;;9.57;100.00;101427.94;5043030;28;20083;-85
2022/05/14 00:03:33;;;;;;;37.47;8.38;;;;;;;9.59;100.00;101428.63;5041604;28;20092;-85
2022/05/14 00:06:01;;;;;;;40.92;8.48;;;;;;;9.55;100.00;101434.44;5029435;28;20033;-86
2022/05/14 00:08:28;;;;;;;40.92;8.75;;;;;;;9.27;100.00;101410.34;5047345;28;20453;-88
2022/05/14 00:13:39;;;;;;;38.50;7.95;;;;;;;9.35;100.00;101436.44;5039221;28;20090;-83
2022/05/14 00:16:06;;;;;;;36.78;10.32;;;;;;;9.41;100.00;101431.28;5050952;28;20111;-82
2022/05/14 00:18:32;;;;;;;33.53;7.82;;;;;;;9.61;100.00;101432.00;5044913;28;20025;-83
2022/05/14 00:21:03;;;;;;;46.88;8.80;;;;;;;9.74;100.00;101438.81;5043214;28;20036;-85
2022/05/14 00:23:29;;;;;;;33.90;7.95;;;;;;;9.77;100.00;101427.78;5038192;28;20059;-83
2022/05/14 00:25:55;;;;;;;36.80;7.15;;;;;;;9.79;100.00;101433.81;5012535;28;20037;-84
2022/05/14 00:28:21;;;;;;;49.85;8.68;;;;;;;9.78;100.00;101435.69;5038665;28;20041;-87
2022/05/14 00:30:46;;;;;;;43.50;7.50;;;;;;;9.72;100.00;101438.16;5014658;28;20048;-87
2022/05/14 00:33:12;;;;;;;49.47;7.70;;;;;;;9.70;100.00;101435.59;5024645;28;20045;-84
2022/05/14 00:35:39;;;;;;;41.53;9.48;;;;;;;9.61;100.00;101423.13;5011071;28;20466;-85
2022/05/14 00:38:05;;;;;;;43.08;10.02;;;;;;;9.69;100.00;101436.63;5046751;28;20025;-88
2022/05/14 00:40:35;;;;;;;48.95;8.13;;;;;;;9.65;100.00;101429.84;5008219;28;20147;-86
2022/05/14 00:43:01;;;;;;;36.28;8.23;;;;;;;9.66;100.00;101432.41;5025020;28;20043;-84
2022/05/14 00:45:32;;;;;;;50.53;9.45;;;;;;;9.60;100.00;101433.00;5040000;28;20111;-84
2022/05/14 00:47:59;;;;;;;54.67;9.23;;;;;;;9.50;100.00;101428.69;5025026;28;20162;-84
2022/05/14 00:50:44;;;;;;;47.45;9.55;;;;;;;9.49;100.00;101433.22;5047912;28;20031;-83
2022/05/14 00:53:15;;;;;;;42.25;8.90;;;;;;;9.50;100.00;101415.25;5026800;28;20471;-85
2022/05/14 00:55:42;;;;;;;41.05;8.30;;;;;;;9.51;100.00;101419.66;5037663;28;20036;-84
2022/05/14 00:58:09;;;;;;;41.00;8.57;;;;;;;9.42;100.00;101416.03;5040119;28;20079;-84
2022/05/14 01:00:36;;;;;;;48.03;9.65;;;;;;;9.27;100.00;101414.88;5024613;28;20033;-84
2022/05/14 01:03:02;;;;;;;50.38;8.43;;;;;;;9.12;100.00;101411.84;5040424;28;20037;-83
2022/05/14 01:05:28;;;;;;;40.83;9.32;;;;;;;9.11;100.00;101421.75;5044379;28;20044;-87
2022/05/14 01:07:55;;;;;;;51.45;9.82;;;;;;;9.02;100.00;101417.25;5019321;28;20041;-85
2022/05/14 01:10:22;;;;;;;39.53;9.63;;;;;;;8.93;100.00;101419.00;5015578;28;20413;-84
2022/05/14 01:12:52;;;;;;;35.50;8.77;;;;;;;8.86;100.00;101422.44;5026619;28;20028;-84
2022/05/14 01:15:21;;;;;;;42.85;8.45;;;;;;;8.82;100.00;101421.91;5045796;28;20029;-84
2022/05/14 01:17:49;;;;;;;36.60;8.20;;;;;;;8.73;100.00;101428.13;5028426;28;20041;-83
2022/05/14 01:20:16;;;;;;;37.15;8.38;;;;;;;8.59;100.00;101427.63;5043623;28;20124;-86
2022/05/14 01:22:49;;;;;;;35.40;8.80;;;;;;;8.46;100.00;101424.41;5043786;28;20482;-84
2022/05/14 01:28:29;;;;;;;35.33;8.35;;;;;;;8.19;100.00;101403.72;5031051;28;20368;-84
2022/05/14 01:31:00;;;;;;;43.30;9.65;;;;;;;8.15;100.00;101419.25;5042915;28;20064;-85
2022/05/14 01:33:26;;;;;;;47.80;8.75;;;;;;;8.08;100.00;101417.28;5046057;28;20120;-84
2022/05/14 01:35:52;;;;;;;43.47;11.18;;;;;;;8.00;100.00;101417.16;5041362;28;20111;-86
2022/05/14 01:38:19;;;;;;;45.13;9.00;;;;;;;7.62;100.00;101378.69;5048713;28;20028;-83
2022/05/14 01:40:44;;;;;;;36.92;8.63;;;;;;;7.77;100.00;101422.81;5041130;28;20155;-84
2022/05/14 01:43:10;;;;;;;43.45;9.55;;;;;;;7.64;100.00;101414.22;5014472;28;20037;-84
2022/05/14 01:45:36;;;;;;;38.40;8.77;;;;;;;7.56;100.00;101411.41;5042205;28;20140;-86
2022/05/14 01:48:02;;;;;;;42.28;10.75;;;;;;;7.52;100.00;101424.22;5049159;28;20036;-83
2022/05/14 01:50:27;;;;;;;36.63;9.73;;;;;;;7.40;100.00;101423.47;5047354;28;20101;-86
2022/05/14 01:52:53;;;;;;;39.65;9.55;;;;;;;7.35;100.00;101430.25;5038128;28;20036;-86
2022/05/14 01:55:19;;;;;;;45.83;8.73;;;;;;;7.20;100.00;101411.09;5032654;28;20033;-83
2022/05/14 01:57:44;;;;;;;26.10;8.07;;;;;;;7.22;100.00;101427.81;5027091;28;20048;-84
2022/05/14 02:00:14;;;;;;;35.97;8.45;;;;;;;7.16;100.00;101425.69;5049567;28;20082;-85
2022/05/14 02:02:41;;;;;;;40.63;9.88;;;;;;;7.07;100.00;101414.00;5042426;28;20055;-80
2022/05/14 02:05:07;;;;;;;31.25;7.38;;;;;;;6.99;100.00;101425.38;5056518;28;20036;-82
2022/05/14 02:07:32;;;;;;;34.35;8.18;;;;;;;6.97;100.00;101429.16;5076520;28;20020;-82
2022/05/14 02:09:58;;;;;;;31.83;9.38;;;;;;;6.96;100.00;101428.34;5078507;28;20025;-83
2022/05/14 02:12:23;;;;;;;44.03;9.63;;;;;;;6.93;100.00;101425.94;5075918;28;20168;-82
2022/05/14 02:14:49;;;;;;;41.63;12.25;;;;;;;6.95;100.00;101431.97;5063021;28;20033;-80
2022/05/14 02:17:19;;;;;;;36.13;8.73;;;;;;;6.86;100.00;101419.44;5060084;28;20125;-85
2022/05/14 02:19:47;;;;;;;51.65;9.60;;;;;;;6.92;100.00;101424.22;5049958;28;20641;-85
2022/05/14 02:22:13;;;;;;;30.35;9.05;;;;;;;6.99;100.00;101417.34;5057387;28;20036;-84
2022/05/14 02:24:38;;;;;;;37.83;8.25;;;;;;;7.01;100.00;101412.72;5035808;28;20033;-83
2022/05/14 02:27:05;;;;;;;41.80;9.45;;;;;;;7.22;100.00;101422.47;5056305;28;20115;-84
2022/05/14 02:32:33;;;;;;;39.08;8.85;;;;;;;7.21;100.00;101412.75;5033387;28;20067;-85
2022/05/14 02:35:00;;;;;;;35.63;9.80;;;;;;;7.11;100.00;101411.88;5004396;28;20051;-84
2022/05/14 02:37:39;;;;;;;39.45;9.63;;;;;;;7.03;100.00;101415.25;5051449;28;20047;-84
2022/05/14 02:40:27;;;;;;;40.78;9.02;;;;;;;6.91;100.00;101400.31;5057046;28;20140;-87
2022/05/14 02:46:24;;;;;;;39.72;9.05;;;;;;;6.69;100.00;101396.00;4938143;28;20518;-83
2022/05/14 02:48:50;;;;;;;31.10;8.55;;;;;;;6.62;100.00;101402.88;5043669;28;20447;-86
2022/05/14 02:51:16;;;;;;;30.25;7.90;;;;;;;6.49;100.00;101408.44;5045998;28;20066;-84
2022/05/14 02:53:42;;;;;;;43.05;8.23;;;;;;;6.39;100.00;101405.72;5042621;28;20037;-83
2022/05/14 02:56:07;;;;;;;42.05;9.23;;;;;;;6.40;100.00;101412.75;5021352;28;21463;-83
2022/05/14 03:01:17;;;;;;;25.92;7.68;;;;;;;6.20;100.00;101405.63;5050982;28;20053;-86
2022/05/14 03:03:43;;;;;;;34.90;7.90;;;;;;;6.16;100.00;101403.19;5010936;28;20477;-82
2022/05/14 03:06:09;;;;;;;41.40;10.45;;;;;;;6.16;100.00;101402.34;5045461;28;20472;-87
2022/05/14 03:08:34;;;;;;;22.63;8.20;;;;;;;6.07;100.00;101406.66;5045947;28;20054;-83
2022/05/14 03:11:00;;;;;;;33.65;8.77;;;;;;;5.90;100.00;101396.53;5046202;28;20071;-86
2022/05/14 03:13:26;;;;;;;31.25;7.22;;;;;;;5.79;100.00;101413.44;5030739;28;20547;-87
2022/05/14 03:15:51;;;;;;;26.05;7.78;;;;;;;5.75;100.00;101405.84;5032713;28;20129;-84
2022/05/14 03:18:17;;;;;;;23.58;7.72;;;;;;;5.76;100.00;101403.03;5012806;28;20103;-83
2022/05/14 03:20:42;;;;;;;33.10;7.78;;;;;;;5.64;100.00;101380.91;5038998;28;20051;-83
2022/05/14 03:23:08;;;;;;;31.42;6.88;;;;;;;5.89;100.00;101402.84;5027624;28;20393;-82
2022/05/14 03:25:34;;;;;;;32.03;8.15;;;;;;;5.92;100.00;101407.91;5022741;28;20464;-86
2022/05/14 03:28:04;;;;;;;33.33;8.32;;;;;;;5.82;100.00;101401.66;5031866;28;20484;-83
2022/05/14 03:30:29;;;;;;;35.05;8.27;;;;;;;5.76;100.00;101413.69;5050972;28;20037;-83
2022/05/14 03:32:55;;;;;;;24.90;8.07;;;;;;;5.70;100.00;101401.72;5049021;28;20048;-84
2022/05/14 03:35:21;;;;;;;26.33;7.18;;;;;;;5.66;100.00;101394.97;5045868;28;20112;-84
2022/05/14 03:37:46;;;;;;;26.48;7.10;;;;;;;5.72;100.00;101405.13;5043694;28;20626;-86
2022/05/14 03:40:13;;;;;;;34.50;7.47;;;;;;;5.60;100.00;101382.13;5045001;28;20540;-82
2022/05/14 03:42:39;;;;;;;30.90;8.57;;;;;;;5.52;100.00;101373.91;5049106;28;20426;-83
2022/05/14 03:45:05;;;;;;;31.88;7.65;;;;;;;5.54;100.00;101398.66;5046359;28;20036;-85
2022/05/14 03:47:30;;;;;;;22.23;7.55;;;;;;;5.56;100.00;101407.38;5043120;28;20025;-88
2022/05/14 03:49:58;;;;;;;29.40;6.93;;;;;;;5.56;100.00;101395.84;5032333;28;20043;-85
2022/05/14 03:52:27;;;;;;;24.95;7.15;;;;;;;5.56;100.00;101401.16;5011112;28;20033;-86
2022/05/14 03:54:52;;;;;;;29.85;6.70;;;;;;;5.39;100.00;101387.41;5043372;28;20060;-85
2022/05/14 03:57:18;;;;;;;25.52;6.35;;;;;;;5.32;100.00;101396.91;5045131;28;20037;-84
2022/05/14 03:59:43;;;;;;;17.02;5.35;;;;;;;5.21;100.00;101389.78;5054870;28;20029;-85
2022/05/14 04:02:09;;;;;;;21.52;5.68;;;;;;;5.20;100.00;101398.75;5044028;28;20057;-86
2022/05/14 04:04:34;;;;;;;20.85;6.10;;;;;;;5.11;100.00;101396.84;5014018;28;20037;-84
2022/05/14 04:07:00;;;;;;;16.27;4.72;;;;;;;5.10;100.00;101403.13;5030505;28;20598;-84
2022/05/14 04:09:26;;;;;;;17.83;4.68;;;;;;;5.04;100.00;101403.63;5029866;28;20039;-84
2022/05/14 04:11:53;;;;;;;17.27;5.25;;;;;;;5.04;100.00;101416.97;5047379;28;20095;-87
2022/05/14 04:14:19;;;;;;;17.02;5.05;;;;;;;4.94;100.00;101405.34;5045531;28;20029;-83
2022/05/14 04:16:45;;;;;;;19.35;6.32;;;;;;;4.98;100.00;101412.13;5049967;28;20390;-85
2022/05/14 04:19:11;;;;;;;24.33;5.97;;;;;;;4.92;100.00;101412.59;5045999;28;20028;-82
2022/05/14 04:21:38;;;;;;;20.85;5.93;;;;;;;4.95;100.00;101415.03;5044492;28;20033;-83
2022/05/14 04:24:04;;;;;;;17.90;6.38;;;;;;;4.94;100.00;101421.34;5045007;28;20091;-86
2022/05/14 04:26:30;;;;;;;14.73;5.32;;;;;;;4.93;100.00;101420.50;5028407;28;20043;-84
2022/05/14 04:28:56;;;;;;;17.08;5.72;;;;;;;4.92;100.00;101418.81;5025736;28;20475;-84
2022/05/14 04:31:21;;;;;;;23.65;6.43;;;;;;;4.92;100.00;101417.94;5030657;28;20344;-86
2022/05/14 04:33:47;;;;;;;26.23;6.22;;;;;;;4.93;100.00;101423.16;5027350;28;20474;-84
2022/05/14 04:36:14;;;;;;;18.20;5.57;;;;;;;4.90;100.00;101414.56;5040159;28;20032;-84
2022/05/14 04:38:39;;;;;;;15.88;5.75;;;;;;;4.73;100.00;101386.59;5022830;28;20037;-82
2022/05/14 04:41:05;;;;;;;25.00;6.38;;;;;;;4.77;100.00;101402.22;5044673;28;20501;-85
2022/05/14 04:43:32;;;;;;;15.70;4.88;;;;;;;4.54;100.00;101371.22;5037070;28;20029;-83
2022/05/14 04:45:57;;;;;;;21.27;5.38;;;;;;;4.71;100.00;101408.03;5041334;28;20029;-83
2022/05/14 04:48:23;;;;;;;13.98;5.10;;;;;;;4.61;100.00;101399.09;5039756;28;20040;-82
2022/05/14 04:50:49;;;;;;;15.18;4.80;;;;;;;4.69;100.00;101409.97;5062620;28;20037;-82
2022/05/14 04:53:15;;;;;;;24.10;6.95;;;;;;;4.68;100.00;101400.28;5045923;28;20533;-85
2022/05/14 04:55:41;;;;;;;19.95;6.20;;;;;;;4.78;100.00;101406.56;5042515;28;20040;-82
2022/05/14 04:58:07;;;;;;;29.55;6.20;;;;;;;4.83;100.00;101408.88;5023453;28;20044;-84
2022/05/14 05:00:33;;;;;;;16.73;5.72;;;;;;;4.73;100.00;101399.91;5044076;28;20033;-82
2022/05/14 05:03:17;;;;;;;13.55;5.13;;;;;;;4.83;100.00;101409.72;5047397;28;20114;-85
2022/05/14 05:05:55;;;;;;;18.17;5.30;;;;;;;5.01;100.00;101417.22;5027731;28;20040;-82
2022/05/14 05:08:22;;;;;;;18.55;5.07;;;;;;;5.19;100.00;101421.06;5031115;28;20089;-84
2022/05/14 05:10:49;;;;;;;13.18;4.57;;;;;;;5.41;100.00;101417.47;5013857;28;20033;-84
2022/05/14 05:13:26;;;;;;;18.38;6.78;;;;;;;5.62;100.00;101414.84;5025788;28;20048;-82
2022/05/14 05:15:52;;;;;;;16.48;5.72;;;;;;;5.79;100.00;101424.13;5051286;28;20037;-83
2022/05/14 05:18:19;;;;;;;16.55;5.72;;;;;;;5.89;100.00;101417.03;5012407;28;20028;-84
2022/05/14 05:20:48;;;;;;;19.13;5.70;;;;;;;6.01;100.00;101417.88;5032336;28;20033;-83
2022/05/14 05:23:16;;;;;;;26.80;7.00;;;;;;;6.10;100.00;101392.19;5023028;28;20478;-83
2022/05/14 05:25:42;;;;;;;22.50;6.10;;;;;;;6.29;100.00;101405.66;5030961;28;20094;-83
2022/05/14 05:28:07;;;;;;;19.38;6.53;;;;;;;6.50;100.00;101410.97;5048645;28;20036;-82
2022/05/14 05:30:33;;;;;;;23.42;6.85;;;;;;;6.49;100.00;101373.72;5049745;28;20068;-84
2022/05/14 05:32:58;;;;;;;16.92;5.80;;;;;;;6.79;100.00;101412.91;5014775;28;20493;-83
2022/05/14 05:35:24;;;;;;;18.50;6.22;;;;;;;6.89;100.00;101410.28;5047191;28;20029;-85
2022/05/14 05:37:50;;;;;;;21.05;6.82;;;;;;;7.01;100.00;101406.50;5049944;28;20040;-86
2022/05/14 05:40:16;;;;;;;20.92;7.18;;;;;;;7.22;100.00;101409.09;5013164;28;20044;-84
2022/05/14 05:42:43;;;;;;;23.80;6.60;;;;;;;7.39;100.00;101410.25;5045701;28;20375;-82
2022/05/14 05:45:11;;;;;;;23.73;7.22;;;;;;;7.60;100.00;101408.31;5014432;28;20033;-84
2022/05/14 05:47:37;;;;;;;21.60;6.60;;;;;;;7.82;100.00;101417.03;5044502;28;20159;-85
2022/05/14 05:50:03;;;;;;;20.77;7.68;;;;;;;7.90;100.00;101399.25;5043592;28;20111;-83
2022/05/14 05:52:31;;;;;;;18.45;7.82;;;;;;;8.02;100.00;101399.97;5026346;28;20036;-83
2022/05/14 05:57:43;;;;;;;22.27;7.65;;;;;;;8.35;100.00;101411.16;5031100;28;20509;-86
2022/05/14 06:00:19;;;;;;;21.98;7.25;;;;;;;8.58;100.00;101433.13;5037606;28;20028;-83
2022/05/14 06:02:46;;;;;;;25.60;7.32;;;;;;;8.71;100.00;101432.81;5016079;28;20041;-84
2022/05/14 06:05:13;;;;;;;30.83;7.70;;;;;;;8.83;100.00;101433.47;5042505;28;20040;-84
2022/05/14 06:07:39;;;;;;;25.38;7.40;;;;;;;8.95;100.00;101438.50;5042372;28;20096;-84
2022/05/14 06:10:09;;;;;;;19.75;7.45;;;;;;;9.05;100.00;101435.78;5031869;28;20033;-83
2022/05/14 06:12:38;;;;;;;36.47;8.18;;;;;;;9.24;100.00;101432.13;5017103;28;20389;-84
2022/05/14 06:15:06;;;;;;;32.75;7.40;;;;;;;9.43;100.00;101436.53;5053663;28;20022;-84
2022/05/14 06:17:32;;;;;;;34.65;9.13;;;;;;;9.62;100.00;101443.59;5038772;28;20037;-83
2022/05/14 06:19:57;;;;;;;39.08;8.38;;;;;;;9.72;100.00;101439.00;5014249;28;20048;-83
2022/05/14 06:22:23;;;;;;;38.83;9.50;;;;;;;9.86;100.00;101440.28;5045844;28;20035;-84
2022/05/14 06:24:49;;;;;;;31.55;8.70;;;;;;;10.04;100.00;101449.16;5056978;28;20028;-88
2022/05/14 06:27:14;;;;;;;37.33;8.73;;;;;;;10.16;100.00;101444.41;5025229;28;20029;-84
2022/05/14 06:29:40;;;;;;;34.53;9.25;;;;;;;10.37;100.00;101451.28;5046245;28;20033;-83
2022/05/14 06:32:06;;;;;;;27.52;7.55;;;;;;;10.52;100.00;101441.66;5051323;28;20033;-87
2022/05/14 06:34:31;;;;;;;30.48;8.25;;;;;;;10.85;100.00;101448.06;5050664;28;20368;-86
2022/05/14 06:36:57;;;;;;;22.75;7.75;;;;;;;11.07;100.00;101445.81;5047080;28;20037;-85
2022/05/14 06:39:23;;;;;;;25.13;8.50;;;;;;;11.10;100.00;101450.84;5051078;28;20071;-86
2022/05/14 06:41:48;;;;;;;23.65;8.77;;;;;;;11.17;100.00;101455.44;5049068;28;20509;-87
2022/05/14 06:44:14;;;;;;;35.25;10.23;;;;;;;11.31;100.00;101453.94;5046526;28;20528;-85
2022/05/14 06:46:40;;;;;;;26.30;7.07;;;;;;;11.41;100.00;101457.34;5059220;28;20033;-83
2022/05/14 06:49:06;;;;;;;26.48;7.13;;;;;;;11.71;100.00;101454.22;5047299;28;20094;-83
2022/05/14 06:51:32;;;;;;;22.75;7.32;;;;;;;11.83;100.00;101456.44;5048093;28;20044;-84
2022/05/14 06:54:08;;;;;;;23.23;6.38;;;;;;;12.16;100.00;101456.44;5047661;28;20036;-84
2022/05/14 06:56:34;;;;;;;26.13;7.18;;;;;;;12.29;100.00;101448.69;5048003;28;20478;-84
2022/05/14 06:59:00;;;;;;;26.05;6.13;;;;;;;13.27;100.00;101476.44;5045034;28;20083;-83
2022/05/14 07:01:27;;;;;;;17.45;6.32;;;;;;;13.08;100.00;101472.28;5038486;28;20071;-85
2022/05/14 07:06:39;;;;;;;32.47;7.85;;;;;;;13.12;100.00;101471.75;5049301;28;20063;-84
2022/05/14 07:09:12;;;;;;;30.80;7.50;;;;;;;13.70;98.32;101476.88;5011945;28;20033;-83
2022/05/14 07:11:44;;;;;;;23.98;6.22;;;;;;;13.94;96.10;101474.00;5042376;28;20029;-85
2022/05/14 07:14:12;;;;;;;31.02;6.80;;;;;;;13.80;96.20;101480.19;5013349;28;20045;-85
2022/05/14 07:16:38;;;;;;;27.23;7.47;;;;;;;13.88;95.64;101474.72;5034248;28;20068;-84
2022/05/14 07:19:06;;;;;;;28.75;7.30;;;;;;;13.85;94.85;101470.53;5025104;28;20563;-83
2022/05/14 07:21:42;;;;;;;20.25;5.88;;;;;;;13.90;95.51;101466.47;5044504;28;20119;-86
2022/05/14 07:24:09;;;;;;;21.33;6.30;;;;;;;14.24;95.45;101476.84;5008044;28;20033;-84
2022/05/14 07:26:36;;;;;;;35.08;9.88;;;;;;;15.41;90.53;101476.25;5028962;28;20037;-83
2022/05/14 07:29:06;;;;;;;21.92;6.63;;;;;;;17.20;81.87;101474.22;5042122;28;20773;-84
2022/05/14 07:31:34;;;;;;;25.17;6.78;;;;;;;18.45;74.18;101461.94;5058102;28;20029;-84
2022/05/14 07:34:02;;;;;;;24.42;6.25;;;;;;;17.82;73.02;101447.91;5039445;28;20098;-83
2022/05/14 07:36:30;;;;;;;24.60;6.90;;;;;;;16.89;76.26;101470.94;5042591;28;20395;-83
2022/05/14 07:38:59;;;;;;;23.45;6.50;;;;;;;16.71;77.93;101459.72;5030511;28;20502;-82
2022/05/14 07:41:28;;;;;;;26.95;6.60;;;;;;;16.41;79.16;101459.09;5034628;28;20071;-87
2022/05/14 07:43:55;;;;;;;32.53;7.20;;;;;;;16.56;81.48;101464.41;5007566;28;20044;-81
2022/05/14 07:46:26;;;;;;;17.30;6.25;;;;;;;17.40;75.70;101477.03;5043676;28;20120;-81
2022/05/14 07:48:53;;;;;;;25.48;6.90;;;;;;;19.00;70.60;101478.00;5040012;28;20037;-82
2022/05/14 07:51:19;;;;;;;19.55;6.55;;;;;;;18.25;72.36;101475.56;5009002;28;20056;-85
2022/05/14 07:53:46;;;;;;;28.30;6.88;;;;;;;17.47;73.38;101472.47;5031274;28;20079;-85
2022/05/14 07:56:11;;;;;;;29.58;6.78;;;;;;;16.90;77.22;101469.06;5046507;28;20032;-79
2022/05/14 07:58:38;;;;;;;31.08;6.88;;;;;;;16.61;78.38;101476.38;5040074;28;20072;-82
2022/05/14 08:01:04;;;;;;;16.83;5.85;;;;;;;16.32;79.43;101468.41;5044481;28;20463;-83
2022/05/14 08:03:30;;;;;;;27.20;6.97;;;;;;;16.04;80.47;101458.38;5042613;28;20100;-80
2022/05/14 08:05:56;;;;;;;25.63;6.82;;;;;;;16.14;81.18;101477.03;5047993;28;20592;-82
2022/05/14 08:08:22;;;;;;;23.35;6.35;;;;;;;15.97;81.28;101473.75;5024932;28;20033;-85
2022/05/14 08:10:49;;;;;;;25.25;6.65;;;;;;;15.91;81.83;101483.50;5039497;28;20148;-81
2022/05/14 08:13:17;;;;;;;18.45;6.22;;;;;;;16.02;81.63;101480.28;5041388;28;20106;-82
2022/05/14 08:15:45;;;;;;;23.55;6.50;;;;;;;16.77;77.65;101477.97;5018511;28;20147;-83
2022/05/14 08:18:10;;;;;;;16.83;7.78;;;;;;;17.14;74.46;101468.56;5024197;28;20041;-84
2022/05/14 08:20:36;;;;;;;24.48;6.53;;;;;;;17.41;72.33;101481.41;5043975;28;20032;-84
2022/05/14 08:25:48;;;;;;;17.58;5.45;;;;;;;16.94;71.75;101478.50;5027983;28;20037;-83
2022/05/14 08:28:14;;;;;;;20.73;6.22;;;;;;;16.71;71.89;101487.72;5041983;28;20032;-87
2022/05/14 08:30:40;;;;;;;30.20;7.20;;;;;;;16.14;74.05;101487.88;5011912;28;20402;-83
2022/05/14 08:33:07;;;;;;;26.52;6.53;;;;;;;16.30;72.60;101462.34;5032361;28;20470;-86
2022/05/14 08:35:33;;;;;;;16.75;6.68;;;;;;;19.22;64.04;101482.13;5042471;28;20037;-83
2022/05/14 08:38:01;;;;;;;28.05;6.40;;;;;;;21.16;55.72;101467.84;5026850;28;20076;-85
2022/05/14 08:40:28;;;;;;;19.38;6.00;;;;;;;20.45;55.75;101480.94;5027150;28;20025;-82
2022/05/14 08:43:09;;;;;;;23.90;7.22;;;;;;;22.07;53.73;101472.28;5045424;28;20040;-83
2022/05/14 08:45:37;;;;;;;20.10;6.07;;;;;;;24.00;45.53;101464.94;5014574;28;20029;-82
2022/05/14 08:48:17;;;;;;;28.60;7.57;;;;;;;25.04;42.43;101472.63;5026210;28;20104;-83
2022/05/14 08:50:44;;;;;;;19.90;6.28;;;;;;;25.50;40.16;101464.09;5046459;28;20041;-82
2022/05/14 08:53:12;;;;;;;22.55;6.35;;;;;;;26.03;38.25;101471.53;5025940;28;20049;-82
2022/05/14 08:55:51;;;;;;;16.33;5.60;;;;;;;26.00;37.83;101471.25;5039386;28;20032;-81
2022/05/14 08:58:31;;;;;;;21.17;6.07;;;;;;;23.35;41.55;101461.53;5027122;28;20035;-82
2022/05/14 09:01:00;;;;;;;21.33;6.90;;;;;;;24.49;41.26;101474.31;5027466;28;20041;-82
2022/05/14 09:03:25;;;;;;;21.13;5.82;;;;;;;24.43;41.29;101468.97;5013541;28;20037;-81
2022/05/14 09:05:56;;;;;;;15.73;4.93;;;;;;;22.80;44.03;101467.47;5031569;28;20033;-81
2022/05/14 09:08:22;;;;;;;24.02;5.88;;;;;;;;;;5024415;28;20510;-83
2022/05/14 09:10:59;;;;;;;17.73;5.78;;;;;;;19.94;51.90;101455.53;5044277;28;20036;-80
2022/05/14 09:13:25;;;;;;;29.20;6.88;;;;;;;19.21;53.69;101453.19;5055046;28;20032;-82
2022/05/14 09:15:57;;;;;;;23.85;6.55;;;;;;;18.98;56.23;101458.31;5048793;28;20032;-78
2022/05/14 09:18:27;;;;;;;22.23;5.73;;;;;;;19.04;55.39;101438.38;5032570;28;20032;-78
2022/05/14 09:20:58;;;;;;;18.98;5.35;;;;;;;19.25;54.75;101453.59;5047742;28;20078;-79
2022/05/14 09:23:40;;;;;;;18.17;5.65;;;;;;;18.09;58.53;101448.75;5046028;28;20035;-78
2022/05/14 09:26:32;;;;;;;17.30;5.78;;;;;;;21.10;51.22;101452.38;5014208;28;20029;-78
2022/05/14 09:29:01;;;;;;;20.27;5.40;;;;;;;24.49;41.46;101459.75;5025932;28;20155;-77
2022/05/14 09:31:36;;;;;;;11.73;4.70;;;;;;;26.34;36.64;101451.69;5011185;28;20561;-78
2022/05/14 09:34:11;;;;;;;12.15;4.28;;;;;;;27.48;33.39;101443.72;5026406;28;20462;-79
2022/05/14 09:36:37;;;;;;;20.17;5.47;;;;;;;27.38;33.94;101450.06;5024336;28;20096;-78
2022/05/14 09:39:06;;;;;;;17.48;6.07;;;;;;;26.38;36.42;101439.84;5029040;28;20703;-79
2022/05/14 09:41:42;;;;;;;14.27;5.05;;;;;;;27.26;33.76;101438.44;5048167;28;20395;-80
2022/05/14 09:44:13;;;;;;;15.82;5.63;;;;;;;27.34;33.53;101448.94;5038926;28;21491;-80
2022/05/14 09:46:39;;;;;;;16.08;5.65;;;;;;;27.60;32.96;101447.91;5012750;28;20034;-80
2022/05/14 09:49:07;;;;;;;13.50;5.30;;;;;;;27.86;32.49;101442.44;5045370;28;20039;-80
2022/05/14 09:51:36;;;;;;;12.18;4.95;;;;;;;28.17;30.99;101434.16;5043867;28;20028;-80
2022/05/14 09:54:54;;;;;;;10.50;3.95;;;;;;;28.87;29.74;101442.59;5058835;28;20037;-79
2022/05/14 09:57:53;;;;;;;13.75;4.82;;;;;;;29.01;29.72;101448.38;5027327;28;20061;-78
2022/05/14 10:00:54;;;;;;;16.20;5.90;;;;;;;28.56;31.24;101441.88;5049832;28;20029;-79
2022/05/14 10:03:22;;;;;;;24.63;8.70;;;;;;;29.55;29.48;101442.00;5054404;28;20048;-80
2022/05/14 10:06:03;;;;;;;9.23;4.97;;;;;;;28.97;28.93;101450.84;5076502;28;20025;-79
2022/05/14 10:09:00;;;;;;;12.45;5.18;;;;;;;25.67;34.17;101445.56;5060810;28;20032;-79
2022/05/14 10:11:34;;;;;;;10.73;5.05;;;;;;;25.73;33.54;101450.03;5035661;28;20037;-83
2022/05/14 10:14:21;;;;;;;14.82;5.03;;;;;;;23.85;36.65;101449.88;5067446;28;20040;-79
2022/05/14 10:17:08;;;;;;;15.18;5.40;;;;;;;24.72;36.12;101432.03;5032391;28;20045;-78
2022/05/14 10:20:10;;;;;;;16.48;5.03;;;;;;;26.72;31.74;101451.41;5054033;28;20028;-79
2022/05/14 10:29:06;;;;;;;13.63;4.55;;;;;;;28.49;29.12;101445.75;5049840;28;20029;-79
2022/05/14 10:31:51;;;;;;;13.25;4.97;;;;;;;27.58;30.30;101439.06;5060351;28;20470;-79
2022/05/14 10:34:21;;;;;;;13.23;5.25;;;;;;;24.51;34.55;101439.16;5040525;28;20029;-80
2022/05/14 10:36:58;;;;;;;12.27;5.88;;;;;;;22.91;39.02;101439.19;5052243;28;20548;-80
2022/05/14 10:39:29;;;;;;;16.35;5.13;;;;;;;22.43;39.26;101437.56;5033386;28;20025;-80
2022/05/14 10:42:11;;;;;;;14.27;5.18;;;;;;;22.05;40.08;101440.75;5030082;28;20025;-79
2022/05/14 10:44:43;;;;;;;16.67;5.45;;;;;;;21.76;40.48;101445.19;5050199;28;20041;-81
2022/05/14 10:47:10;;;;;;;10.60;4.95;;;;;;;21.32;41.67;101442.59;5020375;28;20078;-79
2022/05/14 10:49:43;;;;;;;15.40;5.85;;;;;;;20.99;42.38;101437.56;5031652;28;20951;-79
2022/05/14 10:52:15;;;;;;;17.45;5.72;;;;;;;20.83;43.16;101436.28;5034729;28;20024;-79
2022/05/14 10:54:42;;;;;;;12.02;5.47;;;;;;;20.89;43.23;101435.34;5017887;28;20162;-79
2022/05/14 10:57:13;;;;;;;12.00;6.47;;;;;;;20.91;43.63;101435.97;5049851;28;20076;-78
2022/05/14 10:59:46;;;;;;;12.93;5.50;;;;;;;21.08;43.74;101423.34;5052423;28;20029;-78
2022/05/14 11:02:12;;;;;;;14.63;5.78;;;;;;;22.60;40.52;101437.69;5032221;28;20040;-79
2022/05/14 11:04:40;;;;;;;13.85;5.28;;;;;;;22.55;40.25;101430.19;5051365;28;20044;-78
2022/05/14 11:07:25;;;;;;;12.00;5.90;;;;;;;23.53;40.21;101430.31;5050590;28;20037;-78
2022/05/14 11:09:51;;;;;;;14.35;5.63;;;;;;;25.67;36.01;101429.06;5013326;28;20420;-78
2022/05/14 11:12:19;;;;;;;19.63;6.78;;;;;;;26.80;33.05;101438.19;5049696;28;20063;-79
2022/05/14 11:14:49;;;;;;;10.60;5.53;;;;;;;27.59;32.22;101412.25;5049448;28;20043;-78
2022/05/14 11:17:19;;;;;;;16.10;5.82;;;;;;;27.60;30.27;101427.72;5030086;28;20040;-77
2022/05/14 11:19:45;;;;;;;14.43;5.55;;;;;;;27.59;30.08;101426.91;5049481;28;20021;-78
2022/05/14 11:22:22;;;;;;;11.38;5.15;;;;;;;27.11;31.59;101440.00;5004916;28;20090;-77
2022/05/14 11:24:49;;;;;;;12.10;5.10;;;;;;;26.19;32.67;101422.06;5017766;28;20049;-77
2022/05/14 11:27:34;;;;;;;13.82;5.65;;;;;;;27.12;31.84;101435.28;5015467;28;20106;-76
2022/05/14 11:30:05;;;;;;;13.98;5.97;;;;;;;26.44;33.78;101416.75;5042523;28;20067;-78
2022/05/14 11:32:51;;;;;;;14.50;6.65;;;;;;;24.48;36.20;101419.59;5060961;28;20033;-78
2022/05/14 11:35:17;;;;;;;15.60;5.72;;;;;;;22.93;38.64;101436.22;5057461;28;20379;-77
2022/05/14 11:37:50;;;;;;;9.40;4.25;;;;;;;21.76;39.30;101429.59;5029049;28;20037;-77
2022/05/14 11:40:22;;;;;;;11.57;5.40;;;;;;;21.07;41.67;101434.50;5048587;28;20082;-77
2022/05/14 11:43:06;;;;;;;19.30;5.75;;;;;;;20.89;43.35;101418.13;5030348;28;20475;-77
2022/05/14 11:45:33;;;;;;;16.92;4.88;;;;;;;21.42;42.24;101425.66;5045206;28;20040;-75
2022/05/14 11:48:08;;;;;;;10.90;4.43;;;;;;;22.05;40.96;101405.97;5024188;28;20312;-78
2022/05/14 11:51:06;;;;;;;9.38;4.40;;;;;;;22.33;40.95;101427.22;5035785;28;20041;-77
2022/05/14 11:53:37;;;;;;;12.55;4.88;;;;;;;22.30;40.44;101422.19;5040540;28;20037;-76
2022/05/14 11:56:11;;;;;;;10.82;5.22;;;;;;;22.65;39.95;101426.00;5045436;28;20037;-78